createdAt,value
2019-01-29T00:02:13.003Z,100.00
2019-01-29T00:04:42.376Z,100.00
2019-01-29T00:07:11.724Z,100.00
2019-01-29T00:09:41.417Z,100.00
2019-01-29T00:12:10.760Z,100.00
2019-01-29T00:14:40.316Z,100.00
2019-01-29T00:17:09.628Z,100.00
2019-01-29T00:19:38.891Z,100.00
2019-01-29T00:22:08.136Z,100.00
2019-01-29T00:24:37.420Z,100.00
2019-01-29T00:27:06.894Z,100.00
2019-01-29T00:29:36.283Z,100.00
2019-01-29T00:32:05.780Z,100.00
2019-01-29T00:34:35.062Z,100.00
2019-01-29T00:37:04.503Z,100.00
2019-01-29T00:39:33.796Z,100.00
2019-01-29T00:42:03.441Z,100.00
2019-01-29T00:44:32.751Z,100.00
2019-01-29T00:47:02.199Z,100.00
2019-01-29T00:49:31.599Z,100.00
2019-01-29T00:52:00.973Z,100.00
2019-01-29T00:54:30.334Z,100.00
2019-01-29T00:56:59.759Z,100.00
2019-01-29T00:59:48.144Z,100.00
2019-01-29T01:02:36.531Z,100.00
2019-01-29T01:05:06.320Z,100.00
2019-01-29T01:07:37.982Z,100.00
2019-01-29T01:10:08.403Z,100.00
2019-01-29T01:12:37.833Z,100.00
2019-01-29T01:15:08.463Z,100.00
2019-01-29T01:17:56.980Z,100.00
2019-01-29T01:20:26.443Z,100.00
2019-01-29T01:22:56.014Z,100.00
2019-01-29T01:25:44.511Z,100.00
2019-01-29T01:28:13.941Z,100.00
2019-01-29T01:30:43.643Z,100.00
2019-01-29T01:33:13.213Z,100.00
2019-01-29T01:36:01.739Z,100.00
2019-01-29T01:38:31.268Z,100.00
2019-01-29T01:41:00.767Z,100.00
2019-01-29T01:43:30.254Z,100.00
2019-01-29T01:45:59.709Z,100.00
2019-01-29T01:48:48.067Z,100.00
2019-01-29T01:51:21.190Z,100.00
2019-01-29T01:53:52.941Z,100.00
2019-01-29T01:56:22.319Z,100.00
2019-01-29T01:58:51.817Z,100.00
2019-01-29T02:01:21.096Z,100.00
2019-01-29T02:03:50.516Z,100.00
2019-01-29T02:06:19.802Z,100.00
2019-01-29T02:08:49.250Z,100.00
2019-01-29T02:11:18.462Z,100.00
2019-01-29T02:13:48.329Z,100.00
2019-01-29T02:16:17.696Z,100.00
2019-01-29T02:19:06.102Z,100.00
2019-01-29T02:21:35.437Z,100.00
2019-01-29T02:24:04.796Z,100.00
2019-01-29T02:26:53.286Z,100.00
2019-01-29T02:29:22.662Z,100.00
2019-01-29T02:31:51.929Z,100.00
2019-01-29T02:34:21.396Z,100.00
2019-01-29T02:36:50.649Z,100.00
2019-01-29T02:39:20.385Z,100.00
2019-01-29T02:41:49.745Z,100.00
2019-01-29T02:44:19.153Z,100.00
2019-01-29T02:46:48.457Z,100.00
2019-01-29T02:49:17.800Z,100.00
2019-01-29T02:51:47.201Z,100.00
2019-01-29T02:54:16.496Z,100.00
2019-01-29T02:56:45.859Z,100.00
2019-01-29T02:59:15.365Z,100.00
2019-01-29T03:01:44.687Z,100.00
2019-01-29T03:04:14.067Z,100.00
2019-01-29T03:06:43.344Z,100.00
2019-01-29T03:09:12.734Z,100.00
2019-01-29T03:11:42.029Z,100.00
2019-01-29T03:14:11.335Z,100.00
2019-01-29T03:16:40.713Z,100.00
2019-01-29T03:19:10.057Z,100.00
2019-01-29T03:21:39.465Z,100.00
2019-01-29T03:24:08.820Z,100.00
2019-01-29T03:26:38.359Z,100.00
2019-01-29T03:29:07.810Z,100.00
2019-01-29T03:31:37.086Z,100.00
2019-01-29T03:34:06.459Z,100.00
2019-01-29T03:36:35.827Z,100.00
2019-01-29T03:39:08.338Z,100.00
2019-01-29T03:41:38.253Z,100.00
2019-01-29T03:44:07.685Z,100.00
2019-01-29T03:46:36.991Z,100.00
2019-01-29T03:49:06.515Z,100.00
2019-01-29T03:51:35.959Z,100.00
2019-01-29T03:54:05.716Z,100.00
2019-01-29T03:56:35.224Z,100.00
2019-01-29T03:59:04.843Z,100.00
2019-01-29T04:01:34.355Z,100.00
2019-01-29T04:04:03.567Z,100.00
2019-01-29T04:06:32.909Z,100.00
2019-01-29T04:09:02.243Z,100.00
2019-01-29T04:11:31.559Z,100.00
2019-01-29T04:14:00.932Z,100.00
2019-01-29T04:16:30.312Z,100.00
2019-01-29T04:18:59.626Z,100.00
2019-01-29T04:21:28.889Z,100.00
2019-01-29T04:23:58.317Z,100.00
2019-01-29T04:26:27.761Z,100.00
2019-01-29T04:28:57.137Z,100.00
2019-01-29T04:31:26.626Z,100.00
2019-01-29T04:33:55.877Z,100.00
2019-01-29T04:36:25.205Z,100.00
2019-01-29T04:38:54.501Z,100.00
2019-01-29T04:41:23.882Z,100.00
2019-01-29T04:43:53.375Z,100.00
2019-01-29T04:46:22.795Z,100.00
2019-01-29T04:48:52.102Z,100.00
2019-01-29T04:51:21.544Z,100.00
2019-01-29T04:53:57.249Z,100.00
2019-01-29T04:56:22.022Z,100.00
2019-01-29T04:58:51.430Z,100.00
2019-01-29T05:01:20.870Z,100.00
2019-01-29T05:03:50.221Z,100.00
2019-01-29T05:06:19.751Z,100.00
2019-01-29T05:08:49.130Z,100.00
2019-01-29T05:11:18.573Z,100.00
2019-01-29T05:13:47.867Z,100.00
2019-01-29T05:16:17.681Z,100.00
2019-01-29T05:18:47.014Z,100.00
2019-01-29T05:21:16.320Z,100.00
2019-01-29T05:23:45.721Z,100.00
2019-01-29T05:26:15.193Z,100.00
2019-01-29T05:28:44.634Z,100.00
2019-01-29T05:31:13.940Z,100.00
2019-01-29T05:33:43.360Z,100.00
2019-01-29T05:36:12.715Z,100.00
2019-01-29T05:38:42.133Z,100.00
2019-01-29T05:41:11.539Z,100.00
2019-01-29T05:43:40.910Z,100.00
2019-01-29T05:46:10.324Z,100.00
2019-01-29T05:48:39.728Z,100.00
2019-01-29T05:51:09.192Z,100.00
2019-01-29T05:53:38.629Z,100.00
2019-01-29T05:56:08.102Z,100.00
2019-01-29T05:58:37.462Z,100.00
2019-01-29T06:01:07.126Z,100.00
2019-01-29T06:03:36.480Z,100.00
2019-01-29T06:06:06.078Z,100.00
2019-01-29T06:08:35.537Z,100.00
2019-01-29T06:11:04.854Z,100.00
2019-01-29T06:13:34.258Z,100.00
2019-01-29T06:16:03.786Z,100.00
2019-01-29T06:18:33.167Z,100.00
2019-01-29T06:21:03.110Z,100.00
2019-01-29T06:23:32.522Z,100.00
2019-01-29T06:26:02.248Z,100.00
2019-01-29T06:28:31.654Z,100.00
2019-01-29T06:31:01.059Z,100.00
2019-01-29T06:33:30.586Z,100.00
2019-01-29T06:35:59.914Z,100.00
2019-01-29T06:38:29.273Z,100.00
2019-01-29T06:40:58.609Z,100.00
2019-01-29T06:43:27.947Z,100.00
2019-01-29T06:45:57.354Z,100.00
2019-01-29T06:48:26.700Z,100.00
2019-01-29T06:50:56.111Z,100.00
2019-01-29T06:53:25.574Z,100.00
2019-01-29T06:55:55.009Z,100.00
2019-01-29T06:58:24.548Z,100.00
2019-01-29T07:00:53.909Z,100.00
2019-01-29T07:03:23.362Z,100.00
2019-01-29T07:05:52.775Z,100.00
2019-01-29T07:08:22.178Z,100.00
2019-01-29T07:10:54.158Z,100.00
2019-01-29T07:13:23.749Z,100.00
2019-01-29T07:16:12.641Z,100.00
2019-01-29T07:19:32.031Z,100.00
2019-01-29T07:22:01.812Z,100.00
2019-01-29T07:24:32.219Z,100.00
2019-01-29T07:27:01.617Z,100.00
2019-01-29T07:29:31.079Z,100.00
2019-01-29T07:32:00.535Z,100.00
2019-01-29T07:34:29.919Z,100.00
2019-01-29T07:36:59.522Z,100.00
2019-01-29T07:39:29.090Z,100.00
2019-01-29T07:41:58.434Z,100.00
2019-01-29T07:44:27.841Z,100.00
2019-01-29T07:46:57.136Z,100.00
2019-01-29T07:49:26.799Z,100.00
2019-01-29T07:51:56.236Z,100.00
2019-01-29T07:54:33.249Z,100.00
2019-01-29T07:56:58.431Z,100.00
2019-01-29T07:59:33.061Z,100.00
2019-01-29T08:02:00.930Z,100.00
2019-01-29T08:04:30.406Z,100.00
2019-01-29T08:06:59.687Z,100.00
2019-01-29T08:09:49.608Z,100.00
2019-01-29T08:12:18.975Z,100.00
2019-01-29T08:14:48.687Z,100.00
2019-01-29T08:17:18.297Z,100.00
2019-01-29T08:19:48.617Z,100.00
2019-01-29T08:22:18.097Z,100.00
2019-01-29T08:24:52.102Z,100.00
2019-01-29T08:27:18.838Z,100.00
2019-01-29T08:29:48.233Z,100.00
2019-01-29T08:32:17.543Z,100.00
2019-01-29T08:34:46.896Z,100.00
2019-01-29T08:37:16.609Z,100.00
2019-01-29T08:39:46.012Z,100.00
2019-01-29T08:42:15.857Z,100.00
2019-01-29T08:44:46.106Z,100.00
2019-01-29T08:47:15.453Z,100.00
2019-01-29T08:49:44.795Z,100.00
2019-01-29T08:52:14.160Z,100.00
2019-01-29T08:54:43.593Z,100.00
2019-01-29T08:57:12.951Z,100.00
2019-01-29T08:59:42.357Z,100.00
2019-01-29T09:02:11.746Z,100.00
2019-01-29T09:04:42.278Z,100.00
2019-01-29T09:07:16.232Z,100.00
2019-01-29T09:09:45.721Z,100.00
2019-01-29T09:12:15.151Z,100.00
2019-01-29T09:14:44.795Z,100.00
2019-01-29T09:17:14.976Z,100.00
2019-01-29T09:19:44.465Z,100.00
2019-01-29T09:22:13.939Z,100.00
2019-01-29T09:24:43.282Z,100.00
2019-01-29T09:27:12.652Z,100.00
2019-01-29T09:29:42.459Z,100.00
2019-01-29T09:32:11.834Z,100.00
2019-01-29T09:34:41.269Z,100.00
2019-01-29T09:37:10.652Z,100.00
2019-01-29T09:39:40.131Z,100.00
2019-01-29T09:42:09.531Z,100.00
2019-01-29T09:44:38.981Z,100.00
2019-01-29T09:47:08.992Z,100.00
2019-01-29T09:49:38.378Z,100.00
2019-01-29T09:52:07.709Z,99.69
2019-01-29T09:54:37.054Z,100.00
2019-01-29T09:57:06.432Z,100.00
2019-01-29T09:59:36.885Z,100.00
2019-01-29T10:02:06.293Z,100.00
2019-01-29T10:04:35.725Z,100.00
2019-01-29T10:07:05.168Z,100.00
2019-01-29T10:09:34.632Z,100.00
2019-01-29T10:12:04.158Z,100.00
2019-01-29T10:14:33.492Z,99.71
2019-01-29T10:17:02.961Z,99.87
2019-01-29T10:19:32.305Z,99.88
2019-01-29T10:22:01.833Z,100.00
2019-01-29T10:24:31.230Z,100.00
2019-01-29T10:27:01.269Z,100.00
2019-01-29T10:29:30.763Z,100.00
2019-01-29T10:32:00.111Z,98.93
2019-01-29T10:34:29.391Z,99.07
2019-01-29T10:36:58.789Z,99.11
2019-01-29T10:39:28.191Z,99.68
2019-01-29T10:41:57.638Z,99.56
2019-01-29T10:44:27.691Z,99.83
2019-01-29T10:46:57.162Z,100.00
2019-01-29T10:49:26.733Z,100.00
2019-01-29T10:51:56.491Z,100.00
2019-01-29T10:54:25.797Z,100.00
2019-01-29T10:56:55.223Z,99.95
2019-01-29T10:59:24.627Z,96.32
2019-01-29T11:01:54.112Z,98.28
2019-01-29T11:04:23.433Z,95.11
2019-01-29T11:06:52.786Z,95.68
2019-01-29T11:09:25.505Z,95.61
2019-01-29T11:11:53.627Z,95.29
2019-01-29T11:14:23.061Z,95.48
2019-01-29T11:16:52.463Z,95.95
2019-01-29T11:19:21.898Z,95.75
2019-01-29T11:21:51.257Z,94.89
2019-01-29T11:24:20.842Z,93.00
2019-01-29T11:26:50.387Z,93.41
2019-01-29T11:29:19.834Z,93.46
2019-01-29T11:31:49.354Z,91.07
2019-01-29T11:34:18.687Z,92.31
2019-01-29T11:36:48.034Z,91.69
2019-01-29T11:39:17.425Z,91.44
2019-01-29T11:41:46.715Z,92.26
2019-01-29T11:44:16.168Z,91.34
2019-01-29T11:46:45.916Z,91.19
2019-01-29T11:49:15.436Z,91.35
2019-01-29T11:51:44.990Z,89.39
2019-01-29T11:54:14.590Z,89.98
2019-01-29T11:56:43.948Z,90.48
2019-01-29T11:59:13.261Z,90.70
2019-01-29T12:01:43.686Z,89.22
2019-01-29T12:04:13.454Z,90.03
2019-01-29T12:06:42.779Z,90.83
2019-01-29T12:09:12.298Z,91.40
2019-01-29T12:11:42.524Z,91.12
2019-01-29T12:14:12.131Z,90.66
2019-01-29T12:16:41.499Z,85.31
2019-01-29T12:19:10.931Z,83.38
2019-01-29T12:21:40.125Z,84.61
2019-01-29T12:24:11.270Z,85.58
2019-01-29T12:26:40.502Z,83.13
2019-01-29T12:29:09.868Z,85.04
2019-01-29T12:31:39.164Z,85.04
2019-01-29T12:34:08.608Z,83.68
2019-01-29T12:36:37.990Z,79.62
2019-01-29T12:39:08.888Z,79.58
2019-01-29T12:41:38.352Z,78.19
2019-01-29T12:44:07.760Z,79.33
2019-01-29T12:46:37.112Z,79.21
2019-01-29T12:49:07.558Z,79.68
2019-01-29T12:51:55.292Z,80.14
2019-01-29T12:54:24.806Z,80.89
2019-01-29T12:56:54.106Z,79.86
2019-01-29T12:59:23.561Z,79.98
2019-01-29T13:01:53.040Z,79.44
2019-01-29T13:04:22.448Z,79.81
2019-01-29T13:06:53.694Z,80.52
2019-01-29T13:09:23.215Z,80.15
2019-01-29T13:11:52.519Z,81.11
2019-01-29T13:14:21.939Z,79.39
2019-01-29T13:16:51.244Z,79.02
2019-01-29T13:19:20.734Z,78.62
2019-01-29T13:21:50.153Z,79.55
2019-01-29T13:24:19.507Z,78.84
2019-01-29T13:26:48.948Z,79.43
2019-01-29T13:29:18.310Z,78.86
2019-01-29T13:31:47.591Z,78.88
2019-01-29T13:34:16.953Z,79.15
2019-01-29T13:36:46.240Z,79.15
2019-01-29T13:39:15.660Z,79.29
2019-01-29T13:41:44.945Z,79.67
2019-01-29T13:44:15.306Z,77.86
2019-01-29T13:46:44.666Z,77.50
2019-01-29T13:49:14.078Z,78.28
2019-01-29T13:51:43.486Z,78.69
2019-01-29T13:54:14.544Z,79.37
2019-01-29T13:56:43.882Z,75.90
2019-01-29T13:59:13.396Z,76.28
2019-01-29T14:01:42.784Z,74.69
2019-01-29T14:04:12.084Z,75.36
2019-01-29T14:06:41.542Z,76.24
2019-01-29T14:09:10.997Z,77.00
2019-01-29T14:11:40.427Z,76.46
2019-01-29T14:14:09.744Z,76.03
2019-01-29T14:16:40.054Z,75.74
2019-01-29T14:19:09.411Z,74.05
2019-01-29T14:21:38.930Z,76.43
2019-01-29T14:24:08.372Z,72.23
2019-01-29T14:26:37.692Z,72.14
2019-01-29T14:29:07.094Z,68.69
2019-01-29T14:31:36.528Z,65.89
2019-01-29T14:34:06.418Z,62.89
2019-01-29T14:36:36.194Z,60.99
2019-01-29T14:39:14.351Z,61.44
2019-01-29T14:41:43.820Z,61.70
2019-01-29T14:44:32.204Z,63.59
2019-01-29T14:47:01.894Z,64.83
2019-01-29T14:49:31.348Z,65.67
2019-01-29T14:52:00.825Z,66.04
2019-01-29T14:54:30.202Z,66.62
2019-01-29T14:56:59.600Z,67.32
2019-01-29T14:59:29.028Z,67.71
2019-01-29T15:01:59.530Z,67.91
2019-01-29T15:04:29.023Z,68.38
2019-01-29T15:06:58.729Z,68.77
2019-01-29T15:09:28.160Z,69.16
2019-01-29T15:11:57.559Z,69.31
2019-01-29T15:14:29.934Z,69.72
2019-01-29T15:17:09.204Z,70.12
2019-01-29T15:19:40.325Z,70.48
2019-01-29T15:22:09.849Z,71.02
2019-01-29T15:24:39.368Z,71.26
2019-01-29T15:27:08.947Z,71.76
2019-01-29T15:29:38.377Z,72.16
2019-01-29T15:32:07.896Z,72.51
2019-01-29T15:34:37.248Z,72.79
2019-01-29T15:37:06.794Z,73.08
2019-01-29T15:39:36.302Z,73.44
2019-01-29T15:42:06.089Z,73.66
2019-01-29T15:44:35.964Z,74.01
2019-01-29T15:47:05.722Z,74.38
2019-01-29T15:49:35.433Z,74.64
2019-01-29T15:52:04.974Z,74.97
2019-01-29T15:54:34.449Z,75.35
2019-01-29T15:57:14.048Z,75.64
2019-01-29T15:59:42.778Z,75.95
2019-01-29T16:02:08.878Z,76.17
2019-01-29T16:04:38.234Z,76.45
2019-01-29T16:07:07.774Z,76.62
2019-01-29T16:09:37.319Z,76.83
2019-01-29T16:12:06.965Z,77.03
2019-01-29T16:14:36.324Z,77.23
2019-01-29T16:17:06.460Z,77.42
2019-01-29T16:19:36.105Z,77.62
2019-01-29T16:22:05.905Z,77.82
2019-01-29T16:24:35.409Z,77.89
2019-01-29T16:27:06.912Z,78.07
2019-01-29T16:29:36.161Z,78.24
2019-01-29T16:32:05.769Z,78.41
2019-01-29T16:34:35.369Z,78.54
2019-01-29T16:37:05.117Z,78.79
2019-01-29T16:39:35.087Z,78.94
2019-01-29T16:42:04.611Z,79.12
2019-01-29T16:44:34.107Z,79.24
2019-01-29T16:47:03.652Z,79.43
2019-01-29T16:49:33.078Z,79.59
2019-01-29T16:52:02.552Z,79.77
2019-01-29T16:54:32.193Z,79.90
2019-01-29T16:57:01.890Z,80.04
2019-01-29T16:59:31.682Z,80.13
2019-01-29T17:02:20.244Z,80.24
2019-01-29T17:05:09.115Z,80.38
2019-01-29T17:07:38.745Z,80.55
2019-01-29T17:10:10.029Z,80.92
2019-01-29T17:12:39.904Z,80.92
2019-01-29T17:15:12.758Z,81.31
2019-01-29T17:18:01.392Z,81.70
2019-01-29T17:20:39.016Z,81.72
2019-01-29T17:23:09.594Z,82.01
2019-01-29T17:25:39.225Z,82.26
2019-01-29T17:28:08.909Z,82.44
2019-01-29T17:30:57.450Z,82.76
2019-01-29T17:33:28.167Z,83.37
2019-01-29T17:35:57.755Z,83.67
2019-01-29T17:38:27.912Z,83.68
2019-01-29T17:40:57.526Z,83.58
2019-01-29T17:43:27.262Z,83.67
2019-01-29T17:46:15.953Z,83.80
2019-01-29T17:49:04.619Z,83.75
2019-01-29T17:51:34.372Z,83.88
2019-01-29T17:54:22.986Z,84.25
2019-01-29T17:56:52.716Z,84.53
2019-01-29T17:59:22.427Z,84.97
2019-01-29T18:01:52.205Z,84.82
2019-01-29T18:04:22.070Z,85.06
2019-01-29T18:06:51.890Z,85.28
2019-01-29T18:09:21.643Z,85.54
2019-01-29T18:11:51.362Z,85.65
2019-01-29T18:14:21.116Z,85.90
2019-01-29T18:16:50.751Z,86.15
2019-01-29T18:19:39.426Z,86.26
2019-01-29T18:22:09.285Z,86.39
2019-01-29T18:24:39.038Z,86.75
2019-01-29T18:27:08.763Z,86.76
2019-01-29T18:29:38.395Z,87.05
2019-01-29T18:32:08.251Z,87.20
2019-01-29T18:34:38.161Z,87.40
2019-01-29T18:37:07.882Z,87.42
2019-01-29T18:39:37.729Z,87.63
2019-01-29T18:42:07.643Z,87.78
2019-01-29T18:44:37.617Z,87.69
2019-01-29T18:47:09.953Z,87.89
2019-01-29T18:49:39.691Z,88.14
2019-01-29T18:52:10.735Z,88.20
2019-01-29T18:54:40.426Z,88.50
2019-01-29T18:57:10.169Z,88.51
2019-01-29T18:59:39.865Z,88.54
2019-01-29T19:02:09.666Z,88.74
2019-01-29T19:04:39.441Z,88.95
2019-01-29T19:07:09.371Z,88.94
2019-01-29T19:09:39.181Z,89.15
2019-01-29T19:12:09.013Z,89.23
2019-01-29T19:14:38.743Z,89.40
2019-01-29T19:17:08.600Z,89.37
2019-01-29T19:19:39.311Z,89.45
2019-01-29T19:22:09.022Z,89.52
2019-01-29T19:24:38.849Z,89.43
2019-01-29T19:27:08.584Z,89.63
2019-01-29T19:29:38.396Z,89.70
2019-01-29T19:32:27.234Z,89.69
2019-01-29T19:35:15.995Z,89.69
2019-01-29T19:37:46.247Z,89.87
2019-01-29T19:40:17.497Z,90.06
2019-01-29T19:42:48.890Z,90.21
2019-01-29T19:45:26.837Z,90.35
2019-01-29T19:47:57.665Z,90.44
2019-01-29T19:50:28.283Z,90.45
2019-01-29T19:52:59.232Z,90.61
2019-01-29T19:55:29.374Z,90.77
2019-01-29T19:58:08.673Z,90.82
2019-01-29T20:00:42.390Z,90.89
2019-01-29T20:03:12.454Z,91.10
2019-01-29T20:05:42.297Z,91.34
2019-01-29T20:08:12.200Z,91.29
2019-01-29T20:10:43.129Z,91.32
2019-01-29T20:13:12.991Z,91.41
2019-01-29T20:15:42.836Z,91.49
2019-01-29T20:18:12.645Z,91.74
2019-01-29T20:20:42.584Z,91.85
2019-01-29T20:23:12.573Z,92.00
2019-01-29T20:25:42.306Z,92.09
2019-01-29T20:28:30.959Z,92.12
2019-01-29T20:31:00.832Z,92.01
2019-01-29T20:33:30.661Z,92.10
2019-01-29T20:36:00.455Z,92.26
2019-01-29T20:38:35.108Z,92.33
2019-01-29T20:41:01.780Z,92.26
2019-01-29T20:43:31.437Z,92.23
2019-01-29T20:46:01.465Z,92.29
2019-01-29T20:48:50.203Z,92.36
2019-01-29T20:51:21.500Z,92.45
2019-01-29T20:53:51.193Z,92.62
2019-01-29T20:56:21.657Z,92.58
2019-01-29T20:58:52.667Z,92.56
2019-01-29T21:01:23.067Z,92.51
2019-01-29T21:03:54.820Z,92.41
2019-01-29T21:06:25.900Z,92.48
2019-01-29T21:08:55.574Z,92.68
2019-01-29T21:11:25.675Z,92.83
2019-01-29T21:13:55.341Z,92.88
2019-01-29T21:16:25.172Z,92.87
2019-01-29T21:18:54.833Z,92.93
2019-01-29T21:21:24.662Z,93.05
2019-01-29T21:23:54.115Z,93.12
2019-01-29T21:26:23.822Z,93.27
2019-01-29T21:29:02.505Z,93.47
2019-01-29T21:31:24.889Z,93.44
2019-01-29T21:33:54.339Z,93.55
2019-01-29T21:36:24.131Z,93.64
2019-01-29T21:38:53.702Z,93.73
2019-01-29T21:41:23.436Z,93.76
2019-01-29T21:43:52.884Z,93.71
2019-01-29T21:46:22.380Z,93.77
2019-01-29T21:48:51.829Z,93.69
2019-01-29T21:51:21.353Z,93.81
2019-01-29T21:53:50.699Z,93.88
2019-01-29T21:56:20.257Z,93.84
2019-01-29T21:58:49.605Z,93.76
2019-01-29T22:01:18.931Z,93.80
2019-01-29T22:03:48.437Z,93.92
2019-01-29T22:06:17.751Z,94.07
2019-01-29T22:08:47.215Z,94.21
2019-01-29T22:11:16.694Z,94.31
2019-01-29T22:13:46.105Z,94.37
2019-01-29T22:16:15.478Z,94.41
2019-01-29T22:18:44.943Z,94.41
2019-01-29T22:21:14.442Z,94.41
2019-01-29T22:23:43.829Z,94.44
2019-01-29T22:26:13.281Z,94.46
2019-01-29T22:28:43.101Z,94.59
2019-01-29T22:31:31.511Z,94.57
2019-01-29T22:34:00.764Z,94.55
2019-01-29T22:36:30.217Z,94.58
2019-01-29T22:38:59.574Z,94.66
2019-01-29T22:41:28.987Z,94.75
2019-01-29T22:43:58.506Z,94.82
2019-01-29T22:46:27.857Z,94.91
2019-01-29T22:48:57.391Z,95.14
2019-01-29T22:51:26.862Z,95.17
2019-01-29T22:53:56.385Z,95.12
2019-01-29T22:56:25.766Z,95.18
2019-01-29T22:58:55.108Z,95.18
2019-01-29T23:01:28.981Z,95.09
2019-01-29T23:04:26.905Z,95.02
2019-01-29T23:07:01.883Z,94.94
2019-01-29T23:09:31.333Z,94.98
2019-01-29T23:12:00.597Z,95.00
2019-01-29T23:14:30.124Z,95.02
2019-01-29T23:16:59.537Z,95.07
2019-01-29T23:19:28.842Z,95.13
2019-01-29T23:21:58.222Z,95.19
2019-01-29T23:24:27.682Z,95.25
2019-01-29T23:26:57.054Z,95.27
2019-01-29T23:29:26.424Z,95.28
2019-01-29T23:31:55.863Z,95.33
2019-01-29T23:34:25.286Z,95.33
2019-01-29T23:36:54.803Z,95.21
2019-01-29T23:39:24.375Z,95.33
2019-01-29T23:41:54.071Z,95.54
2019-01-29T23:44:23.608Z,95.55
2019-01-29T23:46:52.973Z,95.42
2019-01-29T23:49:22.294Z,95.43
2019-01-29T23:51:51.724Z,95.50
2019-01-29T23:54:40.293Z,95.56
2019-01-29T23:57:09.690Z,95.64
2019-01-29T23:59:39.104Z,95.59
